Goliah — WDD5908 — position and weather

sailwx.info

Track history (hours):
 
Tides and Currents Weather Stations Pressure Air Temp Water Temp Dewpoint Dewpoint Depression Visibility Wind Speed Wind Dir Waves Ship Positions

Goliah

Owner: Crowley Marine Services, Inc., Seattle, WA. More information available from US FCC via Universal Licensing System and Coast Guard Vessel Documentation Center.

Last reported at 2014-Nov-23 09:29 UTC. Time now 2014-Nov-23 09:49 UTC.
Position N 47°16' W 122°24'.

Length 33 m; draft 4.8 m.

Type: Tug. MMSI: 366898250.

Date/timePositionNaut miles runAvg speedWind from/ knotsBaromVisibWave heightAir tempDewpointWater temp
2014-Nov-23 09:29N 47°16' W 122°24'2 2.6
2014-Nov-23 08:37N 47°18' W 122°27'1 8.6
2014-Nov-23 08:33N 47°18' W 122°27'1 8.8
2014-Nov-23 08:27N 47°19' W 122°27'7 7.5
2014-Nov-23 07:33N 47°25' W 122°23'5 8.6
2014-Nov-23 07:02N 47°29' W 122°25'1 8.1
2014-Nov-23 06:57N 47°30' W 122°26'3 8.8
2014-Nov-23 06:33N 47°33' W 122°27'4 4.4
2014-Nov-23 05:33N 47°35' W 122°21'0 2.2
2014-Nov-23 05:32N 47°35' W 122°21'0 0.1
2014-Nov-23 04:33N 47°35' W 122°21'0 0.3
2014-Nov-23 04:32N 47°35' W 122°21'1 0.6
2014-Nov-23 03:33N 47°35' W 122°21'0 0.0
2014-Nov-23 03:32N 47°35' W 122°21'0 0.0
2014-Nov-23 02:33N 47°35' W 122°21'0 0.2
2014-Nov-23 02:32N 47°35' W 122°21'0 0.0
2014-Nov-23 01:33N 47°35' W 122°21'0 0.2
2014-Nov-23 01:32N 47°35' W 122°21'1 0.5
2014-Nov-23 00:34N 47°35' W 122°22'0 1.7
2014-Nov-23 00:32N 47°35' W 122°22'2 2.0
2014-Nov-22 23:32N 47°34' W 122°21'0 1.1
2014-Nov-22 23:31N 47°34' W 122°21'0 0.4
2014-Nov-22 22:33N 47°33' W 122°21'0 0.0
2014-Nov-22 22:31N 47°33' W 122°21'2 2.4
2014-Nov-22 21:33N 47°35' W 122°21'0 0.0
2014-Nov-22 21:31N 47°35' W 122°21'0 0.0
2014-Nov-22 20:34N 47°35' W 122°21'0 0.0
2014-Nov-22 20:31N 47°35' W 122°21'0 0.0
2014-Nov-22 19:33N 47°35' W 122°21'0 0.0
2014-Nov-22 19:31N 47°35' W 122°21'0 0.0
2014-Nov-22 18:33N 47°35' W 122°21'0 0.0
2014-Nov-22 18:31N 47°35' W 122°21'0 0.0
2014-Nov-22 17:33N 47°35' W 122°21'0 0.0
2014-Nov-22 17:31N 47°35' W 122°21'0 0.0
2014-Nov-22 16:33N 47°35' W 122°21'0 0.0
2014-Nov-22 16:31N 47°35' W 122°21'0 0.0
2014-Nov-22 15:33N 47°35' W 122°21'0 0.0
2014-Nov-22 15:30N 47°35' W 122°21'0 0.0
2014-Nov-22 14:33N 47°35' W 122°21'0 0.1
2014-Nov-22 14:30N 47°35' W 122°21'2 1.8
2014-Nov-22 13:08N 47°33' W 122°20'0 0.6
2014-Nov-22 12:58N 47°33' W 122°20'1 2.2
2014-Nov-22 12:32N 47°34' W 122°21'2 2.0
2014-Nov-22 11:31N 47°36' W 122°22'0 5.1
2014-Nov-22 11:30N 47°36' W 122°22'2 1.9
2014-Nov-22 10:31N 47°37' W 122°24'3 4.5
2014-Nov-22 09:58N 47°35' W 122°21'0 0.0
2014-Nov-22 09:33N 47°35' W 122°21'1 0.6
2014-Nov-22 08:33N 47°35' W 122°21'2 2.0
2014-Nov-22 07:33N 47°37' W 122°22'1 3.2
2014-Nov-22 07:07N 47°36' W 122°21'0 0.4
2014-Nov-22 06:33N 47°35' W 122°21'0 0.0
2014-Nov-22 06:32N 47°35' W 122°21'0 0.0
2014-Nov-22 05:33N 47°35' W 122°21'0 0.3
2014-Nov-22 05:32N 47°35' W 122°21'0 0.0
2014-Nov-22 04:33N 47°35' W 122°21'0 0.0
2014-Nov-22 04:32N 47°35' W 122°21'0 0.0
2014-Nov-22 03:33N 47°35' W 122°21'0 0.0
2014-Nov-22 03:32N 47°35' W 122°21'0 0.0
2014-Nov-22 02:33N 47°35' W 122°21'0 0.0
2014-Nov-22 02:32N 47°35' W 122°21'0 0.0
2014-Nov-22 01:33N 47°35' W 122°21'0 0.3
2014-Nov-22 01:32N 47°35' W 122°21'0 0.0
2014-Nov-22 00:33N 47°35' W 122°21'0 0.0
2014-Nov-22 00:31N 47°35' W 122°21'0 0.0
2014-Nov-21 23:33N 47°35' W 122°21'0 0.0
2014-Nov-21 23:31N 47°35' W 122°21'0 0.0
2014-Nov-21 22:33N 47°35' W 122°21'0 0.0
2014-Nov-21 22:31N 47°35' W 122°21'0 0.0
2014-Nov-21 21:33N 47°35' W 122°21'0 0.0
2014-Nov-21 21:32N 47°35' W 122°21'0 0.0
2014-Nov-21 20:28N 47°35' W 122°21'0 0.0
2014-Nov-21 20:26N 47°35' W 122°21'0 0.0
2014-Nov-21 19:33N 47°35' W 122°21'0 0.1
2014-Nov-21 19:30N 47°35' W 122°21'0 0.0
2014-Nov-21 18:33N 47°35' W 122°21'0 0.0
2014-Nov-21 18:31N 47°35' W 122°21'0 0.0
2014-Nov-21 17:29N 47°35' W 122°21'0 0.0
2014-Nov-21 17:20N 47°35' W 122°21'0 0.0
2014-Nov-21 16:33N 47°35' W 122°21'0 0.1
2014-Nov-21 16:30N 47°35' W 122°21'0 0.3
2014-Nov-21 15:33N 47°35' W 122°21'0 2.0
2014-Nov-21 15:30N 47°36' W 122°21'1 0.6
2014-Nov-21 14:33N 47°35' W 122°21'0 0.0
2014-Nov-21 14:29N 47°35' W 122°21'0 0.3
2014-Nov-21 13:33N 47°36' W 122°21'0 0.1
2014-Nov-21 13:30N 47°36' W 122°21'6 6.6
2014-Nov-21 12:33N 47°30' W 122°24'1010.0
2014-Nov-21 11:33N 47°20' W 122°25'211.0
2014-Nov-21 11:24N 47°18' W 122°27'3 3.1
2014-Nov-21 10:31N 47°16' W 122°24'1 0.8
2014-Nov-21 09:33N 47°16' W 122°25'1 1.3
2014-Nov-21 08:33N 47°17' W 122°26'6 6.4
2014-Nov-21 07:33N 47°23' W 122°22'8 8.3
2014-Nov-21 06:38N 47°30' W 122°26'1 8.7
2014-Nov-21 06:33N 47°31' W 122°27'6 5.9
2014-Nov-21 05:33N 47°35' W 122°21'0 0.0
2014-Nov-21 05:33N 47°35' W 122°21'0 0.0
2014-Nov-21 04:33N 47°35' W 122°21'0 0.1
2014-Nov-21 04:28N 47°35' W 122°21'0 0.0
2014-Nov-21 03:33N 47°35' W 122°21'0 0.0
2014-Nov-21 03:32N 47°35' W 122°21'0 0.0
2014-Nov-21 02:33N 47°35' W 122°21'0 0.0
2014-Nov-21 02:32N 47°35' W 122°21'0 0.0
2014-Nov-21 01:33N 47°35' W 122°21'0 0.0
2014-Nov-21 01:33N 47°35' W 122°21'0 0.0
2014-Nov-21 00:33N 47°35' W 122°21'0 0.0
2014-Nov-21 00:33N 47°35' W 122°21'0 0.0
2014-Nov-20 23:33N 47°35' W 122°21'0 0.0
2014-Nov-20 23:26N 47°35' W 122°21'1 0.8
2014-Nov-20 22:33N 47°35' W 122°21'0 0.0
2014-Nov-20 22:31N 47°35' W 122°21'1 0.9
2014-Nov-20 21:33N 47°36' W 122°21'0 3.4
2014-Nov-20 21:31N 47°36' W 122°21'0 0.3
2014-Nov-20 20:33N 47°35' W 122°21'0 6.8
2014-Nov-20 20:31N 47°35' W 122°21'0 0.4
2014-Nov-20 19:33N 47°35' W 122°21'0 0.0
2014-Nov-20 19:31N 47°35' W 122°21'0 0.0
2014-Nov-20 18:33N 47°35' W 122°21'0 0.0
2014-Nov-20 18:30N 47°35' W 122°21'0 0.0
2014-Nov-20 17:33N 47°35' W 122°21'0 0.0
2014-Nov-20 17:26N 47°35' W 122°21'0 0.0
2014-Nov-20 16:32N 47°35' W 122°21'0 0.0
2014-Nov-20 16:30N 47°35' W 122°21'0 0.0
2014-Nov-20 15:33N 47°35' W 122°21'0 0.0
2014-Nov-20 15:30N 47°35' W 122°21'0 0.0
2014-Nov-20 14:33N 47°35' W 122°21'0 0.1
2014-Nov-20 14:30N 47°35' W 122°21'0 0.0
2014-Nov-20 13:33N 47°35' W 122°21'0 0.0
2014-Nov-20 13:30N 47°35' W 122°21'0 0.0
2014-Nov-20 12:33N 47°35' W 122°21'0 0.1
2014-Nov-20 12:30N 47°35' W 122°21'0 0.0
2014-Nov-20 11:33N 47°35' W 122°21'0 0.1
2014-Nov-20 11:29N 47°35' W 122°21'0 0.0
2014-Nov-20 10:33N 47°35' W 122°21'0 0.1
2014-Nov-20 10:29N 47°35' W 122°21'1 1.1
2014-Nov-20 09:33N 47°36' W 122°22'0 4.7
2014-Nov-20 09:29N 47°36' W 122°23'1 1.4
2014-Nov-20 08:33N 47°35' W 122°21'0 0.0
2014-Nov-20 08:28N 47°35' W 122°21'0 0.0
2014-Nov-20 07:49N 47°35' W 122°21'0 0.0
2014-Nov-20 07:32N 47°35' W 122°21'0 0.0
2014-Nov-20 06:32N 47°35' W 122°21'0 0.0
2014-Nov-20 06:28N 47°35' W 122°21'0 0.0
2014-Nov-20 05:33N 47°35' W 122°21'0 0.0
2014-Nov-20 05:33N 47°35' W 122°21'0 0.2
2014-Nov-20 04:33N 47°35' W 122°21'0 0.0
2014-Nov-20 04:33N 47°35' W 122°21'0 0.0
2014-Nov-20 03:33N 47°35' W 122°21'0 0.3
2014-Nov-20 03:32N 47°35' W 122°21'0 0.0
2014-Nov-20 02:33N 47°35' W 122°21'0 0.2
2014-Nov-20 01:32N 47°35' W 122°21'0 0.0
2014-Nov-20 01:09N 47°35' W 122°21'0 0.0
2014-Nov-20 00:33N 47°35' W 122°21'0 0.0
2014-Nov-20 00:29N 47°35' W 122°21'0 0.0
2014-Nov-19 23:33N 47°35' W 122°21'0 0.0
2014-Nov-19 23:29N 47°35' W 122°21'0 0.0
2014-Nov-19 22:33N 47°35' W 122°21'0 1.9
2014-Nov-19 22:28N 47°36' W 122°21'0 0.4
2014-Nov-19 21:34N 47°36' W 122°21'0 6.1
2014-Nov-19 21:33N 47°36' W 122°21'1 0.5
2014-Nov-19 20:33N 47°35' W 122°22'0 0.0
2014-Nov-19 20:33N 47°35' W 122°22'1 0.7
2014-Nov-19 19:33N 47°35' W 122°21'0 0.0
2014-Nov-19 19:32N 47°35' W 122°21'0 0.0
2014-Nov-19 18:33N 47°35' W 122°21'0 0.0
2014-Nov-19 18:32N 47°35' W 122°21'0 0.0
2014-Nov-19 17:33N 47°35' W 122°21'0 0.0
2014-Nov-19 17:05N 47°35' W 122°21'0 0.0
2014-Nov-19 16:33N 47°35' W 122°21'0 0.0
2014-Nov-19 16:30N 47°35' W 122°21'0 0.0
2014-Nov-19 15:33N 47°35' W 122°21'0 0.0
2014-Nov-19 15:30N 47°35' W 122°21'0 0.0
2014-Nov-19 14:33N 47°35' W 122°21'0 0.0
2014-Nov-19 13:54N 47°35' W 122°21'0 0.0
2014-Nov-19 13:33N 47°35' W 122°21'0 0.0
2014-Nov-19 13:29N 47°35' W 122°21'0 0.2
2014-Nov-19 12:33N 47°35' W 122°21'0 0.0
2014-Nov-19 12:29N 47°35' W 122°21'2 1.7
2014-Nov-19 11:33N 47°37' W 122°22'112.0
2014-Nov-19 11:29N 47°36' W 122°23'1011.0
2014-Nov-19 10:33N 47°26' W 122°23'311.8
2014-Nov-19 10:19N 47°23' W 122°21'7 9.3
2014-Nov-19 09:33N 47°17' W 122°25'2 2.1
2014-Nov-19 08:33N 47°16' W 122°23'6 5.7
2014-Nov-19 07:33N 47°21' W 122°25'7 9.7
2014-Nov-19 06:48N 47°29' W 122°25'312.0
2014-Nov-19 06:33N 47°31' W 122°26'5 5.3
2014-Nov-19 05:33N 47°35' W 122°21'0 0.0
2014-Nov-19 05:33N 47°35' W 122°21'0 0.4
2014-Nov-19 04:33N 47°35' W 122°21'0 0.0
2014-Nov-19 04:33N 47°35' W 122°21'0 0.4
2014-Nov-19 03:33N 47°35' W 122°21'0 0.0
2014-Nov-19 03:33N 47°35' W 122°21'0 0.0
2014-Nov-19 02:32N 47°35' W 122°21'0 0.0
2014-Nov-19 02:32N 47°35' W 122°21'0 0.5
2014-Nov-19 01:33N 47°36' W 122°21'0 2.6
2014-Nov-19 01:28N 47°36' W 122°21'2 1.8
2014-Nov-19 00:34N 47°37' W 122°23'0 2.3
2014-Nov-19 00:32N 47°37' W 122°23'2 2.1
2014-Nov-18 23:33N 47°35' W 122°21'0 0.5
2014-Nov-18 23:33N 47°35' W 122°21'0 0.0
2014-Nov-18 22:33N 47°35' W 122°21'0 0.6
2014-Nov-18 22:33N 47°35' W 122°21'0 0.0
2014-Nov-18 21:33N 47°35' W 122°21'0 0.0
2014-Nov-18 21:33N 47°35' W 122°21'4 4.2
2014-Nov-18 20:33N 47°38' W 122°26'1 9.2
2014-Nov-18 20:28N 47°39' W 122°26'9 9.9
2014-Nov-18 19:33N 47°48' W 122°25'110.0
2014-Nov-18 19:27N 47°49' W 122°24'9 9.9
2014-Nov-18 18:33N 47°57' W 122°19'4 3.9
2014-Nov-18 17:33N 47°59' W 122°14'0 0.5
2014-Nov-18 16:33N 47°58' W 122°14'1 0.6
2014-Nov-18 15:33N 47°59' W 122°13'0 0.0
2014-Nov-18 14:33N 47°59' W 122°13'0 0.0
2014-Nov-18 13:33N 47°59' W 122°13'5 4.8
2014-Nov-18 12:33N 47°56' W 122°20'8 9.0
2014-Nov-18 11:40N 47°49' W 122°24'1 9.2
2014-Nov-18 11:33N 47°48' W 122°25'0 8.7
2014-Nov-18 11:31N 47°47' W 122°25'9 9.1
2014-Nov-18 10:33N 47°39' W 122°26'1 9.5
2014-Nov-18 10:30N 47°38' W 122°26'3 2.9
2014-Nov-18 09:33N 47°37' W 122°22'0 0.1
2014-Nov-18 09:30N 47°37' W 122°22'0 0.1
2014-Nov-18 08:33N 47°37' W 122°22'0 0.1
2014-Nov-18 08:30N 47°37' W 122°22'2 2.2
2014-Nov-18 07:33N 47°35' W 122°21'0 0.1
2014-Nov-18 07:30N 47°35' W 122°21'0 0.0
2014-Nov-18 07:00N 47°35' W 122°21'0 0.0
2014-Nov-18 06:33N 47°35' W 122°21'0 0.0
2014-Nov-18 05:33N 47°35' W 122°21'0 0.0
2014-Nov-18 05:30N 47°35' W 122°21'0 0.0
2014-Nov-18 04:33N 47°35' W 122°21'0 0.1
2014-Nov-18 04:30N 47°35' W 122°21'0 0.0
2014-Nov-18 03:33N 47°35' W 122°21'0 0.0
2014-Nov-18 03:30N 47°35' W 122°21'0 0.0
2014-Nov-18 02:33N 47°35' W 122°21'0 0.0
2014-Nov-18 02:30N 47°35' W 122°21'0 0.0
2014-Nov-18 01:33N 47°35' W 122°21'0 0.0
2014-Nov-18 01:29N 47°35' W 122°21'0 0.0
2014-Nov-18 00:33N 47°35' W 122°21'0 0.0
2014-Nov-18 00:29N 47°35' W 122°21'0 0.0
2014-Nov-17 23:33N 47°35' W 122°21'0 0.1
2014-Nov-17 23:28N 47°35' W 122°21'0 0.0
2014-Nov-17 22:33N 47°35' W 122°21'0 0.0
2014-Nov-17 22:33N 47°35' W 122°21'0 0.0
2014-Nov-17 21:33N 47°35' W 122°21'0 0.0
2014-Nov-17 21:27N 47°35' W 122°21'1 1.1
2014-Nov-17 20:33N 47°34' W 122°21'0 3.2
2014-Nov-17 20:32N 47°34' W 122°21'1 0.7
2014-Nov-17 19:33N 47°34' W 122°21'0 0.0
2014-Nov-17 19:21N 47°34' W 122°21'1 1.5
2014-Nov-17 18:33N 47°35' W 122°22'010.2
2014-Nov-17 18:31N 47°35' W 122°22'0 0.5
2014-Nov-17 17:33N 47°35' W 122°21'0 0.0
2014-Nov-17 16:55N 47°35' W 122°21'0 0.0
2014-Nov-17 16:33N 47°35' W 122°21'0 0.1
2014-Nov-17 16:29N 47°35' W 122°21'1 0.6
2014-Nov-17 15:33N 47°35' W 122°21'0 0.1
2014-Nov-17 15:29N 47°35' W 122°21'0 0.0
2014-Nov-17 14:33N 47°35' W 122°21'0 0.1
2014-Nov-17 14:29N 47°35' W 122°21'0 0.3
2014-Nov-17 13:33N 47°35' W 122°21'0 0.0
2014-Nov-17 13:29N 47°35' W 122°21'0 0.1
2014-Nov-17 12:33N 47°35' W 122°21'0 0.3
2014-Nov-17 12:28N 47°35' W 122°21'0 0.3
2014-Nov-17 11:33N 47°35' W 122°21'0 0.0
2014-Nov-17 10:51N 47°35' W 122°21'0 0.0
2014-Nov-17 10:33N 47°35' W 122°21'0 0.0
2014-Nov-17 10:31N 47°35' W 122°21'0 0.0
2014-Nov-17 09:33N 47°35' W 122°21'0 0.0
2014-Nov-17 09:31N 47°35' W 122°21'0 0.0
2014-Nov-17 08:31N 47°35' W 122°21'0 0.0
2014-Nov-17 08:30N 47°35' W 122°21'0 0.0
2014-Nov-17 07:33N 47°35' W 122°21'0 0.0
2014-Nov-17 07:30N 47°35' W 122°21'0 0.0
2014-Nov-17 06:50N 47°35' W 122°21'0 0.0
2014-Nov-17 06:33N 47°35' W 122°21'0 0.0
2014-Nov-17 05:33N 47°35' W 122°21'0 0.0
2014-Nov-17 05:30N 47°35' W 122°21'0 0.0
2014-Nov-17 04:33N 47°35' W 122°21'0 0.0
2014-Nov-17 04:09N 47°35' W 122°21'0 0.0
2014-Nov-17 03:33N 47°35' W 122°21'0 0.1
2014-Nov-17 03:29N 47°35' W 122°21'5 5.3
2014-Nov-17 02:33N 47°31' W 122°25'9 8.8
2014-Nov-17 01:34N 47°23' W 122°21'7 5.6
2014-Nov-17 00:14N 47°16' W 122°24'3 2.0
2014-Nov-16 22:33N 47°18' W 122°27'0 4.1
2014-Nov-16 22:28N 47°19' W 122°27'6 7.0
2014-Nov-16 21:33N 47°24' W 122°23'10 9.9
2014-Nov-16 20:34N 47°34' W 122°27'2 9.2
2014-Nov-16 20:21N 47°35' W 122°25'3 3.5
2014-Nov-16 19:33N 47°35' W 122°21'0 0.1
2014-Nov-16 19:31N 47°35' W 122°21'0 0.0
2014-Nov-16 18:33N 47°35' W 122°21'0 0.0
2014-Nov-16 18:30N 47°35' W 122°21'0 0.0
2014-Nov-16 17:33N 47°35' W 122°21'0 0.0
2014-Nov-16 17:30N 47°35' W 122°21'0 0.0
2014-Nov-16 16:33N 47°35' W 122°21'0 0.0
2014-Nov-16 16:30N 47°35' W 122°21'0 0.0
2014-Nov-16 15:33N 47°35' W 122°21'0 0.0
2014-Nov-16 15:30N 47°35' W 122°21'0 0.0
2014-Nov-16 14:33N 47°35' W 122°21'0 0.0
2014-Nov-16 14:30N 47°35' W 122°21'0 0.0
2014-Nov-16 13:33N 47°35' W 122°21'0 0.0
2014-Nov-16 13:29N 47°35' W 122°21'0 0.0
2014-Nov-16 12:33N 47°35' W 122°21'0 0.0
2014-Nov-16 12:24N 47°35' W 122°21'0 0.0
2014-Nov-16 11:33N 47°35' W 122°21'0 0.1
2014-Nov-16 11:29N 47°35' W 122°21'0 0.0
2014-Nov-16 10:33N 47°35' W 122°21'0 0.0
2014-Nov-16 10:33N 47°35' W 122°21'0 0.0
2014-Nov-16 09:33N 47°35' W 122°21'0 0.0
2014-Nov-16 09:33N 47°35' W 122°21'1 0.7
2014-Nov-16 08:33N 47°35' W 122°21'0 0.2
2014-Nov-16 08:28N 47°35' W 122°21'0 0.0
2014-Nov-16 07:33N 47°35' W 122°21'0 0.3
2014-Nov-16 07:32N 47°35' W 122°21'0 0.0
2014-Nov-16 06:52N 47°35' W 122°21'0 0.0
2014-Nov-16 06:33N 47°35' W 122°21'1 0.7
2014-Nov-16 05:33N 47°35' W 122°21'0 0.0
2014-Nov-16 05:32N 47°35' W 122°21'0 0.0
2014-Nov-16 04:33N 47°35' W 122°21'0 0.0
2014-Nov-16 04:32N 47°35' W 122°21'0 0.0
2014-Nov-16 03:33N 47°35' W 122°21'0 0.0
2014-Nov-16 03:32N 47°35' W 122°21'0 0.0
2014-Nov-16 02:33N 47°35' W 122°21'0 0.2
2014-Nov-16 02:31N 47°35' W 122°21'0 0.0
2014-Nov-16 01:33N 47°35' W 122°21'0 0.0
2014-Nov-16 00:33N 47°35' W 122°21'0 0.0
2014-Nov-16 00:09N 47°35' W 122°21'0 0.0
2014-Nov-15 23:33N 47°35' W 122°21'0 0.1
2014-Nov-15 23:29N 47°35' W 122°21'0 0.0
2014-Nov-15 22:33N 47°35' W 122°21'0 0.0
2014-Nov-15 22:12N 47°35' W 122°21'0 0.0
2014-Nov-15 21:33N 47°35' W 122°21'0 0.0
2014-Nov-15 20:56N 47°35' W 122°21'0 0.0
2014-Nov-15 20:33N 47°35' W 122°21'0 0.0
2014-Nov-15 20:31N 47°35' W 122°21'0 0.0
2014-Nov-15 19:34N 47°35' W 122°21'0 0.0
2014-Nov-15 19:31N 47°35' W 122°21'0 0.0
2014-Nov-15 18:33N 47°35' W 122°21'0 0.1
2014-Nov-15 18:31N 47°35' W 122°21'0 0.0
2014-Nov-15 17:33N 47°35' W 122°21'0 0.0
2014-Nov-15 17:31N 47°35' W 122°21'0 0.0
2014-Nov-15 16:34N 47°35' W 122°21'0 0.0
2014-Nov-15 16:30N 47°35' W 122°21'0 0.0
2014-Nov-15 15:29N 47°35' W 122°21'0 0.4
2014-Nov-15 15:28N 47°35' W 122°21'0 0.0
2014-Nov-15 14:33N 47°35' W 122°21'0 0.0
2014-Nov-15 14:22N 47°35' W 122°21'0 0.0
2014-Nov-15 13:33N 47°35' W 122°21'0 0.0
2014-Nov-15 13:32N 47°35' W 122°21'0 0.0
2014-Nov-15 12:33N 47°35' W 122°21'0 0.0
2014-Nov-15 12:32N 47°35' W 122°21'1 0.6
2014-Nov-15 11:33N 47°35' W 122°21'0 1.3
2014-Nov-15 11:32N 47°35' W 122°21'2 1.8
2014-Nov-15 10:32N 47°37' W 122°21'0 3.6
2014-Nov-15 10:32N 47°37' W 122°22'1 1.4
2014-Nov-15 09:33N 47°35' W 122°21'0 0.6
2014-Nov-15 09:08N 47°35' W 122°21'0 0.0
2014-Nov-15 08:33N 47°35' W 122°21'0 0.0
2014-Nov-15 08:17N 47°35' W 122°21'0 0.0
2014-Nov-15 07:33N 47°35' W 122°21'0 0.0
2014-Nov-15 07:00N 47°35' W 122°21'0 0.0
2014-Nov-15 06:33N 47°35' W 122°21'0 0.0
2014-Nov-15 05:33N 47°35' W 122°21'0 0.1
2014-Nov-15 05:30N 47°35' W 122°21'0 0.0
2014-Nov-15 04:33N 47°35' W 122°21'0 0.0
2014-Nov-15 04:30N 47°35' W 122°21'0 0.0
2014-Nov-15 03:33N 47°35' W 122°21'0 0.0
2014-Nov-15 03:30N 47°35' W 122°21'0 0.2
2014-Nov-15 02:33N 47°35' W 122°21'0 0.9
2014-Nov-15 02:29N 47°35' W 122°21'1 1.5
2014-Nov-15 01:33N 47°37' W 122°22'0 2.1
2014-Nov-15 01:29N 47°37' W 122°21'2 1.9
2014-Nov-15 00:33N 47°35' W 122°22'0 0.0
2014-Nov-15 00:29N 47°35' W 122°22'1 0.6
2014-Nov-14 23:33N 47°35' W 122°21'0 0.0
2014-Nov-14 23:29N 47°35' W 122°21'0 0.0
2014-Nov-14 22:33N 47°35' W 122°21'0 0.1
2014-Nov-14 22:29N 47°35' W 122°21'0 0.0
2014-Nov-14 21:33N 47°35' W 122°21'0 0.0
2014-Nov-14 21:28N 47°35' W 122°21'0 0.0
2014-Nov-14 20:33N 47°35' W 122°21'0 0.0
2014-Nov-14 20:29N 47°35' W 122°21'0 0.0
2014-Nov-14 19:33N 47°35' W 122°21'0 0.1
2014-Nov-14 19:29N 47°35' W 122°21'0 0.0
2014-Nov-14 18:33N 47°35' W 122°21'0 0.2
2014-Nov-14 18:29N 47°35' W 122°21'2 2.3
2014-Nov-14 17:33N 47°33' W 122°21'0 1.5
2014-Nov-14 17:28N 47°33' W 122°21'2 2.3
2014-Nov-14 16:33N 47°35' W 122°22'0 5.7
2014-Nov-14 16:29N 47°35' W 122°21'0 0.1
2014-Nov-14 15:33N 47°35' W 122°21'0 0.1
2014-Nov-14 15:28N 47°35' W 122°21'4 4.6
2014-Nov-14 14:33N 47°38' W 122°26'090.6
2014-Nov-14 14:33N 47°38' W 122°26'8 7.8
2014-Nov-14 13:28N 47°46' W 122°27'8 8.3
2014-Nov-14 12:33N 47°54' W 122°29'0 0.0
2014-Nov-14 12:33N 47°54' W 122°29'8 7.6
2014-Nov-14 11:33N 47°60' W 122°37'0 0.0
2014-Nov-14 11:33N 47°60' W 122°37'26 6.6
2014-Nov-14 07:33N 48°25' W 122°45'8 8.0
2014-Nov-14 06:33N 48°31' W 122°37'2 1.6
2014-Nov-14 05:33N 48°31' W 122°35'1 0.7
2014-Nov-14 04:33N 48°31' W 122°35'5 4.6
2014-Nov-14 03:33N 48°31' W 122°42'112.0
2014-Nov-14 03:30N 48°30' W 122°42'1111.7
2014-Nov-14 02:32N 48°19' W 122°46'2311.4
2014-Nov-14 00:33N 47°58' W 122°34'212.0
2014-Nov-14 00:25N 47°57' W 122°32'1112.3
2014-Nov-13 23:33N 47°47' W 122°26'111.5
2014-Nov-13 23:30N 47°46' W 122°26'1111.5
2014-Nov-13 22:33N 47°36' W 122°22'111.5
2014-Nov-13 22:30N 47°35' W 122°22'0 0.2
2014-Nov-13 21:33N 47°35' W 122°22'0 1.9
2014-Nov-13 21:29N 47°35' W 122°22'1 0.5
2014-Nov-13 20:33N 47°35' W 122°21'0 5.5
2014-Nov-13 20:29N 47°35' W 122°21'1 0.9
2014-Nov-13 19:33N 47°36' W 122°21'0 0.2
2014-Nov-13 19:24N 47°36' W 122°21'0 0.6
2014-Nov-13 18:33N 47°35' W 122°21'0 1.2
2014-Nov-13 18:28N 47°35' W 122°21'0 0.0
2014-Nov-13 17:31N 47°35' W 122°21'0 0.0
2014-Nov-13 17:28N 47°35' W 122°21'4 4.5
2014-Nov-13 16:33N 47°32' W 122°25'0 5.1
2014-Nov-13 16:33N 47°32' W 122°25'7 7.6
2014-Nov-13 15:33N 47°25' W 122°22'6 6.3
2014-Nov-13 14:33N 47°19' W 122°26'3 3.2
2014-Nov-13 13:33N 47°16' W 122°24'1 1.5
2014-Nov-13 12:33N 47°18' W 122°26'1 0.7
2014-Nov-13 11:33N 47°17' W 122°25'2 1.9
2014-Nov-13 10:33N 47°16' W 122°23'4 5.6
2014-Nov-13 09:52N 47°19' W 122°27'3 8.9
2014-Nov-13 09:33N 47°21' W 122°25'  
Track history (hours):
 
Tides and Currents Weather Stations Pressure Air Temp Water Temp Dewpoint Dewpoint Depression Visibility Wind Speed Wind Dir Waves Ship Positions

Goliah

Owner: Crowley Marine Services, Inc., Seattle, WA. More information available from US FCC via Universal Licensing System and Coast Guard Vessel Documentation Center.

Last reported at 2014-Nov-23 09:29 UTC. Time now 2014-Nov-23 09:49 UTC.
Position N 47°16' W 122°24'.

Length 33 m; draft 4.8 m.

Type: Tug. MMSI: 366898250.

Date/timePositionNaut miles runAvg speedWind from/ knotsBaromVisibWave heightAir tempDewpointWater temp
2014-Nov-23 09:29N 47°16' W 122°24'2 2.6
2014-Nov-23 08:37N 47°18' W 122°27'1 8.6
2014-Nov-23 08:33N 47°18' W 122°27'1 8.8
2014-Nov-23 08:27N 47°19' W 122°27'7 7.5
2014-Nov-23 07:33N 47°25' W 122°23'5 8.6
2014-Nov-23 07:02N 47°29' W 122°25'1 8.1
2014-Nov-23 06:57N 47°30' W 122°26'3 8.8
2014-Nov-23 06:33N 47°33' W 122°27'4 4.4
2014-Nov-23 05:33N 47°35' W 122°21'0 2.2
2014-Nov-23 05:32N 47°35' W 122°21'0 0.1
2014-Nov-23 04:33N 47°35' W 122°21'0 0.3
2014-Nov-23 04:32N 47°35' W 122°21'1 0.6
2014-Nov-23 03:33N 47°35' W 122°21'0 0.0
2014-Nov-23 03:32N 47°35' W 122°21'0 0.0
2014-Nov-23 02:33N 47°35' W 122°21'0 0.2
2014-Nov-23 02:32N 47°35' W 122°21'0 0.0
2014-Nov-23 01:33N 47°35' W 122°21'0 0.2
2014-Nov-23 01:32N 47°35' W 122°21'1 0.5
2014-Nov-23 00:34N 47°35' W 122°22'0 1.7
2014-Nov-23 00:32N 47°35' W 122°22'2 2.0
2014-Nov-22 23:32N 47°34' W 122°21'0 1.1
2014-Nov-22 23:31N 47°34' W 122°21'0 0.4
2014-Nov-22 22:33N 47°33' W 122°21'0 0.0
2014-Nov-22 22:31N 47°33' W 122°21'2 2.4
2014-Nov-22 21:33N 47°35' W 122°21'0 0.0
2014-Nov-22 21:31N 47°35' W 122°21'0 0.0
2014-Nov-22 20:34N 47°35' W 122°21'0 0.0
2014-Nov-22 20:31N 47°35' W 122°21'0 0.0
2014-Nov-22 19:33N 47°35' W 122°21'0 0.0
2014-Nov-22 19:31N 47°35' W 122°21'0 0.0
2014-Nov-22 18:33N 47°35' W 122°21'0 0.0
2014-Nov-22 18:31N 47°35' W 122°21'0 0.0
2014-Nov-22 17:33N 47°35' W 122°21'0 0.0
2014-Nov-22 17:31N 47°35' W 122°21'0 0.0
2014-Nov-22 16:33N 47°35' W 122°21'0 0.0
2014-Nov-22 16:31N 47°35' W 122°21'0 0.0
2014-Nov-22 15:33N 47°35' W 122°21'0 0.0
2014-Nov-22 15:30N 47°35' W 122°21'0 0.0
2014-Nov-22 14:33N 47°35' W 122°21'0 0.1
2014-Nov-22 14:30N 47°35' W 122°21'2 1.8
2014-Nov-22 13:08N 47°33' W 122°20'0 0.6
2014-Nov-22 12:58N 47°33' W 122°20'1 2.2
2014-Nov-22 12:32N 47°34' W 122°21'2 2.0
2014-Nov-22 11:31N 47°36' W 122°22'0 5.1
2014-Nov-22 11:30N 47°36' W 122°22'2 1.9
2014-Nov-22 10:31N 47°37' W 122°24'3 4.5
2014-Nov-22 09:58N 47°35' W 122°21'0 0.0
2014-Nov-22 09:33N 47°35' W 122°21'1 0.6
2014-Nov-22 08:33N 47°35' W 122°21'2 2.0
2014-Nov-22 07:33N 47°37' W 122°22'1 3.2
2014-Nov-22 07:07N 47°36' W 122°21'0 0.4
2014-Nov-22 06:33N 47°35' W 122°21'0 0.0
2014-Nov-22 06:32N 47°35' W 122°21'0 0.0
2014-Nov-22 05:33N 47°35' W 122°21'0 0.3
2014-Nov-22 05:32N 47°35' W 122°21'0 0.0
2014-Nov-22 04:33N 47°35' W 122°21'0 0.0
2014-Nov-22 04:32N 47°35' W 122°21'0 0.0
2014-Nov-22 03:33N 47°35' W 122°21'0 0.0
2014-Nov-22 03:32N 47°35' W 122°21'0 0.0
2014-Nov-22 02:33N 47°35' W 122°21'0 0.0
2014-Nov-22 02:32N 47°35' W 122°21'0 0.0
2014-Nov-22 01:33N 47°35' W 122°21'0 0.3
2014-Nov-22 01:32N 47°35' W 122°21'0 0.0
2014-Nov-22 00:33N 47°35' W 122°21'0 0.0
2014-Nov-22 00:31N 47°35' W 122°21'0 0.0
2014-Nov-21 23:33N 47°35' W 122°21'0 0.0
2014-Nov-21 23:31N 47°35' W 122°21'0 0.0
2014-Nov-21 22:33N 47°35' W 122°21'0 0.0
2014-Nov-21 22:31N 47°35' W 122°21'0 0.0
2014-Nov-21 21:33N 47°35' W 122°21'0 0.0
2014-Nov-21 21:32N 47°35' W 122°21'0 0.0
2014-Nov-21 20:28N 47°35' W 122°21'0 0.0
2014-Nov-21 20:26N 47°35' W 122°21'0 0.0
2014-Nov-21 19:33N 47°35' W 122°21'0 0.1
2014-Nov-21 19:30N 47°35' W 122°21'0 0.0
2014-Nov-21 18:33N 47°35' W 122°21'0 0.0
2014-Nov-21 18:31N 47°35' W 122°21'0 0.0
2014-Nov-21 17:29N 47°35' W 122°21'0 0.0
2014-Nov-21 17:20N 47°35' W 122°21'0 0.0
2014-Nov-21 16:33N 47°35' W 122°21'0 0.1
2014-Nov-21 16:30N 47°35' W 122°21'0 0.3
2014-Nov-21 15:33N 47°35' W 122°21'0 2.0
2014-Nov-21 15:30N 47°36' W 122°21'1 0.6
2014-Nov-21 14:33N 47°35' W 122°21'0 0.0
2014-Nov-21 14:29N 47°35' W 122°21'0 0.3
2014-Nov-21 13:33N 47°36' W 122°21'0 0.1
2014-Nov-21 13:30N 47°36' W 122°21'6 6.6
2014-Nov-21 12:33N 47°30' W 122°24'1010.0
2014-Nov-21 11:33N 47°20' W 122°25'211.0
2014-Nov-21 11:24N 47°18' W 122°27'3 3.1
2014-Nov-21 10:31N 47°16' W 122°24'1 0.8
2014-Nov-21 09:33N 47°16' W 122°25'1 1.3
2014-Nov-21 08:33N 47°17' W 122°26'6 6.4
2014-Nov-21 07:33N 47°23' W 122°22'8 8.3
2014-Nov-21 06:38N 47°30' W 122°26'1 8.7
2014-Nov-21 06:33N 47°31' W 122°27'6 5.9
2014-Nov-21 05:33N 47°35' W 122°21'0 0.0
2014-Nov-21 05:33N 47°35' W 122°21'0 0.0
2014-Nov-21 04:33N 47°35' W 122°21'0 0.1
2014-Nov-21 04:28N 47°35' W 122°21'0 0.0
2014-Nov-21 03:33N 47°35' W 122°21'0 0.0
2014-Nov-21 03:32N 47°35' W 122°21'0 0.0
2014-Nov-21 02:33N 47°35' W 122°21'0 0.0
2014-Nov-21 02:32N 47°35' W 122°21'0 0.0
2014-Nov-21 01:33N 47°35' W 122°21'0 0.0
2014-Nov-21 01:33N 47°35' W 122°21'0 0.0
2014-Nov-21 00:33N 47°35' W 122°21'0 0.0
2014-Nov-21 00:33N 47°35' W 122°21'0 0.0
2014-Nov-20 23:33N 47°35' W 122°21'0 0.0
2014-Nov-20 23:26N 47°35' W 122°21'1 0.8
2014-Nov-20 22:33N 47°35' W 122°21'0 0.0
2014-Nov-20 22:31N 47°35' W 122°21'1 0.9
2014-Nov-20 21:33N 47°36' W 122°21'0 3.4
2014-Nov-20 21:31N 47°36' W 122°21'0 0.3
2014-Nov-20 20:33N 47°35' W 122°21'0 6.8
2014-Nov-20 20:31N 47°35' W 122°21'0 0.4
2014-Nov-20 19:33N 47°35' W 122°21'0 0.0
2014-Nov-20 19:31N 47°35' W 122°21'0 0.0
2014-Nov-20 18:33N 47°35' W 122°21'0 0.0
2014-Nov-20 18:30N 47°35' W 122°21'0 0.0
2014-Nov-20 17:33N 47°35' W 122°21'0 0.0
2014-Nov-20 17:26N 47°35' W 122°21'0 0.0
2014-Nov-20 16:32N 47°35' W 122°21'0 0.0
2014-Nov-20 16:30N 47°35' W 122°21'0 0.0
2014-Nov-20 15:33N 47°35' W 122°21'0 0.0
2014-Nov-20 15:30N 47°35' W 122°21'0 0.0
2014-Nov-20 14:33N 47°35' W 122°21'0 0.1
2014-Nov-20 14:30N 47°35' W 122°21'0 0.0
2014-Nov-20 13:33N 47°35' W 122°21'0 0.0
2014-Nov-20 13:30N 47°35' W 122°21'0 0.0
2014-Nov-20 12:33N 47°35' W 122°21'0 0.1
2014-Nov-20 12:30N 47°35' W 122°21'0 0.0
2014-Nov-20 11:33N 47°35' W 122°21'0 0.1
2014-Nov-20 11:29N 47°35' W 122°21'0 0.0
2014-Nov-20 10:33N 47°35' W 122°21'0 0.1
2014-Nov-20 10:29N 47°35' W 122°21'1 1.1
2014-Nov-20 09:33N 47°36' W 122°22'0 4.7
2014-Nov-20 09:29N 47°36' W 122°23'1 1.4
2014-Nov-20 08:33N 47°35' W 122°21'0 0.0
2014-Nov-20 08:28N 47°35' W 122°21'0 0.0
2014-Nov-20 07:49N 47°35' W 122°21'0 0.0
2014-Nov-20 07:32N 47°35' W 122°21'0 0.0
2014-Nov-20 06:32N 47°35' W 122°21'0 0.0
2014-Nov-20 06:28N 47°35' W 122°21'0 0.0
2014-Nov-20 05:33N 47°35' W 122°21'0 0.0
2014-Nov-20 05:33N 47°35' W 122°21'0 0.2
2014-Nov-20 04:33N 47°35' W 122°21'0 0.0
2014-Nov-20 04:33N 47°35' W 122°21'0 0.0
2014-Nov-20 03:33N 47°35' W 122°21'0 0.3
2014-Nov-20 03:32N 47°35' W 122°21'0 0.0
2014-Nov-20 02:33N 47°35' W 122°21'0 0.2
2014-Nov-20 01:32N 47°35' W 122°21'0 0.0
2014-Nov-20 01:09N 47°35' W 122°21'0 0.0
2014-Nov-20 00:33N 47°35' W 122°21'0 0.0
2014-Nov-20 00:29N 47°35' W 122°21'0 0.0
2014-Nov-19 23:33N 47°35' W 122°21'0 0.0
2014-Nov-19 23:29N 47°35' W 122°21'0 0.0
2014-Nov-19 22:33N 47°35' W 122°21'0 1.9
2014-Nov-19 22:28N 47°36' W 122°21'0 0.4
2014-Nov-19 21:34N 47°36' W 122°21'0 6.1
2014-Nov-19 21:33N 47°36' W 122°21'1 0.5
2014-Nov-19 20:33N 47°35' W 122°22'0 0.0
2014-Nov-19 20:33N 47°35' W 122°22'1 0.7
2014-Nov-19 19:33N 47°35' W 122°21'0 0.0
2014-Nov-19 19:32N 47°35' W 122°21'0 0.0
2014-Nov-19 18:33N 47°35' W 122°21'0 0.0
2014-Nov-19 18:32N 47°35' W 122°21'0 0.0
2014-Nov-19 17:33N 47°35' W 122°21'0 0.0
2014-Nov-19 17:05N 47°35' W 122°21'0 0.0
2014-Nov-19 16:33N 47°35' W 122°21'0 0.0
2014-Nov-19 16:30N 47°35' W 122°21'0 0.0
2014-Nov-19 15:33N 47°35' W 122°21'0 0.0
2014-Nov-19 15:30N 47°35' W 122°21'0 0.0
2014-Nov-19 14:33N 47°35' W 122°21'0 0.0
2014-Nov-19 13:54N 47°35' W 122°21'0 0.0
2014-Nov-19 13:33N 47°35' W 122°21'0 0.0
2014-Nov-19 13:29N 47°35' W 122°21'0 0.2
2014-Nov-19 12:33N 47°35' W 122°21'0 0.0
2014-Nov-19 12:29N 47°35' W 122°21'2 1.7
2014-Nov-19 11:33N 47°37' W 122°22'112.0
2014-Nov-19 11:29N 47°36' W 122°23'1011.0
2014-Nov-19 10:33N 47°26' W 122°23'311.8
2014-Nov-19 10:19N 47°23' W 122°21'7 9.3
2014-Nov-19 09:33N 47°17' W 122°25'2 2.1
2014-Nov-19 08:33N 47°16' W 122°23'6 5.7
2014-Nov-19 07:33N 47°21' W 122°25'7 9.7
2014-Nov-19 06:48N 47°29' W 122°25'312.0
2014-Nov-19 06:33N 47°31' W 122°26'5 5.3
2014-Nov-19 05:33N 47°35' W 122°21'0 0.0
2014-Nov-19 05:33N 47°35' W 122°21'0 0.4
2014-Nov-19 04:33N 47°35' W 122°21'0 0.0
2014-Nov-19 04:33N 47°35' W 122°21'0 0.4
2014-Nov-19 03:33N 47°35' W 122°21'0 0.0
2014-Nov-19 03:33N 47°35' W 122°21'0 0.0
2014-Nov-19 02:32N 47°35' W 122°21'0 0.0
2014-Nov-19 02:32N 47°35' W 122°21'0 0.5
2014-Nov-19 01:33N 47°36' W 122°21'0 2.6
2014-Nov-19 01:28N 47°36' W 122°21'2 1.8
2014-Nov-19 00:34N 47°37' W 122°23'0 2.3
2014-Nov-19 00:32N 47°37' W 122°23'2 2.1
2014-Nov-18 23:33N 47°35' W 122°21'0 0.5
2014-Nov-18 23:33N 47°35' W 122°21'0 0.0
2014-Nov-18 22:33N 47°35' W 122°21'0 0.6
2014-Nov-18 22:33N 47°35' W 122°21'0 0.0
2014-Nov-18 21:33N 47°35' W 122°21'0 0.0
2014-Nov-18 21:33N 47°35' W 122°21'4 4.2
2014-Nov-18 20:33N 47°38' W 122°26'1 9.2
2014-Nov-18 20:28N 47°39' W 122°26'9 9.9
2014-Nov-18 19:33N 47°48' W 122°25'110.0
2014-Nov-18 19:27N 47°49' W 122°24'9 9.9
2014-Nov-18 18:33N 47°57' W 122°19'4 3.9
2014-Nov-18 17:33N 47°59' W 122°14'0 0.5
2014-Nov-18 16:33N 47°58' W 122°14'1 0.6
2014-Nov-18 15:33N 47°59' W 122°13'0 0.0
2014-Nov-18 14:33N 47°59' W 122°13'0 0.0
2014-Nov-18 13:33N 47°59' W 122°13'5 4.8
2014-Nov-18 12:33N 47°56' W 122°20'8 9.0
2014-Nov-18 11:40N 47°49' W 122°24'1 9.2
2014-Nov-18 11:33N 47°48' W 122°25'0 8.7
2014-Nov-18 11:31N 47°47' W 122°25'9 9.1
2014-Nov-18 10:33N 47°39' W 122°26'1 9.5
2014-Nov-18 10:30N 47°38' W 122°26'3 2.9
2014-Nov-18 09:33N 47°37' W 122°22'0 0.1
2014-Nov-18 09:30N 47°37' W 122°22'0 0.1
2014-Nov-18 08:33N 47°37' W 122°22'0 0.1
2014-Nov-18 08:30N 47°37' W 122°22'2 2.2
2014-Nov-18 07:33N 47°35' W 122°21'0 0.1
2014-Nov-18 07:30N 47°35' W 122°21'0 0.0
2014-Nov-18 07:00N 47°35' W 122°21'0 0.0
2014-Nov-18 06:33N 47°35' W 122°21'0 0.0
2014-Nov-18 05:33N 47°35' W 122°21'0 0.0
2014-Nov-18 05:30N 47°35' W 122°21'0 0.0
2014-Nov-18 04:33N 47°35' W 122°21'0 0.1
2014-Nov-18 04:30N 47°35' W 122°21'0 0.0
2014-Nov-18 03:33N 47°35' W 122°21'0 0.0
2014-Nov-18 03:30N 47°35' W 122°21'0 0.0
2014-Nov-18 02:33N 47°35' W 122°21'0 0.0
2014-Nov-18 02:30N 47°35' W 122°21'0 0.0
2014-Nov-18 01:33N 47°35' W 122°21'0 0.0
2014-Nov-18 01:29N 47°35' W 122°21'0 0.0
2014-Nov-18 00:33N 47°35' W 122°21'0 0.0
2014-Nov-18 00:29N 47°35' W 122°21'0 0.0
2014-Nov-17 23:33N 47°35' W 122°21'0 0.1
2014-Nov-17 23:28N 47°35' W 122°21'0 0.0
2014-Nov-17 22:33N 47°35' W 122°21'0 0.0
2014-Nov-17 22:33N 47°35' W 122°21'0 0.0
2014-Nov-17 21:33N 47°35' W 122°21'0 0.0
2014-Nov-17 21:27N 47°35' W 122°21'1 1.1
2014-Nov-17 20:33N 47°34' W 122°21'0 3.2
2014-Nov-17 20:32N 47°34' W 122°21'1 0.7
2014-Nov-17 19:33N 47°34' W 122°21'0 0.0
2014-Nov-17 19:21N 47°34' W 122°21'1 1.5
2014-Nov-17 18:33N 47°35' W 122°22'010.2
2014-Nov-17 18:31N 47°35' W 122°22'0 0.5
2014-Nov-17 17:33N 47°35' W 122°21'0 0.0
2014-Nov-17 16:55N 47°35' W 122°21'0 0.0
2014-Nov-17 16:33N 47°35' W 122°21'0 0.1
2014-Nov-17 16:29N 47°35' W 122°21'1 0.6
2014-Nov-17 15:33N 47°35' W 122°21'0 0.1
2014-Nov-17 15:29N 47°35' W 122°21'0 0.0
2014-Nov-17 14:33N 47°35' W 122°21'0 0.1
2014-Nov-17 14:29N 47°35' W 122°21'0 0.3
2014-Nov-17 13:33N 47°35' W 122°21'0 0.0
2014-Nov-17 13:29N 47°35' W 122°21'0 0.1
2014-Nov-17 12:33N 47°35' W 122°21'0 0.3
2014-Nov-17 12:28N 47°35' W 122°21'0 0.3
2014-Nov-17 11:33N 47°35' W 122°21'0 0.0
2014-Nov-17 10:51N 47°35' W 122°21'0 0.0
2014-Nov-17 10:33N 47°35' W 122°21'0 0.0
2014-Nov-17 10:31N 47°35' W 122°21'0 0.0
2014-Nov-17 09:33N 47°35' W 122°21'0 0.0
2014-Nov-17 09:31N 47°35' W 122°21'0 0.0
2014-Nov-17 08:31N 47°35' W 122°21'0 0.0
2014-Nov-17 08:30N 47°35' W 122°21'0 0.0
2014-Nov-17 07:33N 47°35' W 122°21'0 0.0
2014-Nov-17 07:30N 47°35' W 122°21'0 0.0
2014-Nov-17 06:50N 47°35' W 122°21'0 0.0
2014-Nov-17 06:33N 47°35' W 122°21'0 0.0
2014-Nov-17 05:33N 47°35' W 122°21'0 0.0
2014-Nov-17 05:30N 47°35' W 122°21'0 0.0
2014-Nov-17 04:33N 47°35' W 122°21'0 0.0
2014-Nov-17 04:09N 47°35' W 122°21'0 0.0
2014-Nov-17 03:33N 47°35' W 122°21'0 0.1
2014-Nov-17 03:29N 47°35' W 122°21'5 5.3
2014-Nov-17 02:33N 47°31' W 122°25'9 8.8
2014-Nov-17 01:34N 47°23' W 122°21'7 5.6
2014-Nov-17 00:14N 47°16' W 122°24'3 2.0
2014-Nov-16 22:33N 47°18' W 122°27'0 4.1
2014-Nov-16 22:28N 47°19' W 122°27'6 7.0
2014-Nov-16 21:33N 47°24' W 122°23'10 9.9
2014-Nov-16 20:34N 47°34' W 122°27'2 9.2
2014-Nov-16 20:21N 47°35' W 122°25'3 3.5
2014-Nov-16 19:33N 47°35' W 122°21'0 0.1
2014-Nov-16 19:31N 47°35' W 122°21'0 0.0
2014-Nov-16 18:33N 47°35' W 122°21'0 0.0
2014-Nov-16 18:30N 47°35' W 122°21'0 0.0
2014-Nov-16 17:33N 47°35' W 122°21'0 0.0
2014-Nov-16 17:30N 47°35' W 122°21'0 0.0
2014-Nov-16 16:33N 47°35' W 122°21'0 0.0
2014-Nov-16 16:30N 47°35' W 122°21'0 0.0
2014-Nov-16 15:33N 47°35' W 122°21'0 0.0
2014-Nov-16 15:30N 47°35' W 122°21'0 0.0
2014-Nov-16 14:33N 47°35' W 122°21'0 0.0
2014-Nov-16 14:30N 47°35' W 122°21'0 0.0
2014-Nov-16 13:33N 47°35' W 122°21'0 0.0
2014-Nov-16 13:29N 47°35' W 122°21'0 0.0
2014-Nov-16 12:33N 47°35' W 122°21'0 0.0
2014-Nov-16 12:24N 47°35' W 122°21'0 0.0
2014-Nov-16 11:33N 47°35' W 122°21'0 0.1
2014-Nov-16 11:29N 47°35' W 122°21'0 0.0
2014-Nov-16 10:33N 47°35' W 122°21'0 0.0
2014-Nov-16 10:33N 47°35' W 122°21'0 0.0
2014-Nov-16 09:33N 47°35' W 122°21'0 0.0
2014-Nov-16 09:33N 47°35' W 122°21'1 0.7
2014-Nov-16 08:33N 47°35' W 122°21'0 0.2
2014-Nov-16 08:28N 47°35' W 122°21'0 0.0
2014-Nov-16 07:33N 47°35' W 122°21'0 0.3
2014-Nov-16 07:32N 47°35' W 122°21'0 0.0
2014-Nov-16 06:52N 47°35' W 122°21'0 0.0
2014-Nov-16 06:33N 47°35' W 122°21'1 0.7
2014-Nov-16 05:33N 47°35' W 122°21'0 0.0
2014-Nov-16 05:32N 47°35' W 122°21'0 0.0
2014-Nov-16 04:33N 47°35' W 122°21'0 0.0
2014-Nov-16 04:32N 47°35' W 122°21'0 0.0
2014-Nov-16 03:33N 47°35' W 122°21'0 0.0
2014-Nov-16 03:32N 47°35' W 122°21'0 0.0
2014-Nov-16 02:33N 47°35' W 122°21'0 0.2
2014-Nov-16 02:31N 47°35' W 122°21'0 0.0
2014-Nov-16 01:33N 47°35' W 122°21'0 0.0
2014-Nov-16 00:33N 47°35' W 122°21'0 0.0
2014-Nov-16 00:09N 47°35' W 122°21'0 0.0
2014-Nov-15 23:33N 47°35' W 122°21'0 0.1
2014-Nov-15 23:29N 47°35' W 122°21'0 0.0
2014-Nov-15 22:33N 47°35' W 122°21'0 0.0
2014-Nov-15 22:12N 47°35' W 122°21'0 0.0
2014-Nov-15 21:33N 47°35' W 122°21'0 0.0
2014-Nov-15 20:56N 47°35' W 122°21'0 0.0
2014-Nov-15 20:33N 47°35' W 122°21'0 0.0
2014-Nov-15 20:31N 47°35' W 122°21'0 0.0
2014-Nov-15 19:34N 47°35' W 122°21'0 0.0
2014-Nov-15 19:31N 47°35' W 122°21'0 0.0
2014-Nov-15 18:33N 47°35' W 122°21'0 0.1
2014-Nov-15 18:31N 47°35' W 122°21'0 0.0
2014-Nov-15 17:33N 47°35' W 122°21'0 0.0
2014-Nov-15 17:31N 47°35' W 122°21'0 0.0
2014-Nov-15 16:34N 47°35' W 122°21'0 0.0
2014-Nov-15 16:30N 47°35' W 122°21'0 0.0
2014-Nov-15 15:29N 47°35' W 122°21'0 0.4
2014-Nov-15 15:28N 47°35' W 122°21'0 0.0
2014-Nov-15 14:33N 47°35' W 122°21'0 0.0
2014-Nov-15 14:22N 47°35' W 122°21'0 0.0
2014-Nov-15 13:33N 47°35' W 122°21'0 0.0
2014-Nov-15 13:32N 47°35' W 122°21'0 0.0
2014-Nov-15 12:33N 47°35' W 122°21'0 0.0
2014-Nov-15 12:32N 47°35' W 122°21'1 0.6
2014-Nov-15 11:33N 47°35' W 122°21'0 1.3
2014-Nov-15 11:32N 47°35' W 122°21'2 1.8
2014-Nov-15 10:32N 47°37' W 122°21'0 3.6
2014-Nov-15 10:32N 47°37' W 122°22'1 1.4
2014-Nov-15 09:33N 47°35' W 122°21'0 0.6
2014-Nov-15 09:08N 47°35' W 122°21'0 0.0
2014-Nov-15 08:33N 47°35' W 122°21'0 0.0
2014-Nov-15 08:17N 47°35' W 122°21'0 0.0
2014-Nov-15 07:33N 47°35' W 122°21'0 0.0
2014-Nov-15 07:00N 47°35' W 122°21'0 0.0
2014-Nov-15 06:33N 47°35' W 122°21'0 0.0
2014-Nov-15 05:33N 47°35' W 122°21'0 0.1
2014-Nov-15 05:30N 47°35' W 122°21'0 0.0
2014-Nov-15 04:33N 47°35' W 122°21'0 0.0
2014-Nov-15 04:30N 47°35' W 122°21'0 0.0
2014-Nov-15 03:33N 47°35' W 122°21'0 0.0
2014-Nov-15 03:30N 47°35' W 122°21'0 0.2
2014-Nov-15 02:33N 47°35' W 122°21'0 0.9
2014-Nov-15 02:29N 47°35' W 122°21'1 1.5
2014-Nov-15 01:33N 47°37' W 122°22'0 2.1
2014-Nov-15 01:29N 47°37' W 122°21'2 1.9
2014-Nov-15 00:33N 47°35' W 122°22'0 0.0
2014-Nov-15 00:29N 47°35' W 122°22'1 0.6
2014-Nov-14 23:33N 47°35' W 122°21'0 0.0
2014-Nov-14 23:29N 47°35' W 122°21'0 0.0
2014-Nov-14 22:33N 47°35' W 122°21'0 0.1
2014-Nov-14 22:29N 47°35' W 122°21'0 0.0
2014-Nov-14 21:33N 47°35' W 122°21'0 0.0
2014-Nov-14 21:28N 47°35' W 122°21'0 0.0
2014-Nov-14 20:33N 47°35' W 122°21'0 0.0
2014-Nov-14 20:29N 47°35' W 122°21'0 0.0
2014-Nov-14 19:33N 47°35' W 122°21'0 0.1
2014-Nov-14 19:29N 47°35' W 122°21'0 0.0
2014-Nov-14 18:33N 47°35' W 122°21'0 0.2
2014-Nov-14 18:29N 47°35' W 122°21'2 2.3
2014-Nov-14 17:33N 47°33' W 122°21'0 1.5
2014-Nov-14 17:28N 47°33' W 122°21'2 2.3
2014-Nov-14 16:33N 47°35' W 122°22'0 5.7
2014-Nov-14 16:29N 47°35' W 122°21'0 0.1
2014-Nov-14 15:33N 47°35' W 122°21'0 0.1
2014-Nov-14 15:28N 47°35' W 122°21'4 4.6
2014-Nov-14 14:33N 47°38' W 122°26'090.6
2014-Nov-14 14:33N 47°38' W 122°26'8 7.8
2014-Nov-14 13:28N 47°46' W 122°27'8 8.3
2014-Nov-14 12:33N 47°54' W 122°29'0 0.0
2014-Nov-14 12:33N 47°54' W 122°29'8 7.6
2014-Nov-14 11:33N 47°60' W 122°37'0 0.0
2014-Nov-14 11:33N 47°60' W 122°37'26 6.6
2014-Nov-14 07:33N 48°25' W 122°45'8 8.0
2014-Nov-14 06:33N 48°31' W 122°37'2 1.6
2014-Nov-14 05:33N 48°31' W 122°35'1 0.7
2014-Nov-14 04:33N 48°31' W 122°35'5 4.6
2014-Nov-14 03:33N 48°31' W 122°42'112.0
2014-Nov-14 03:30N 48°30' W 122°42'1111.7
2014-Nov-14 02:32N 48°19' W 122°46'2311.4
2014-Nov-14 00:33N 47°58' W 122°34'212.0
2014-Nov-14 00:25N 47°57' W 122°32'1112.3
2014-Nov-13 23:33N 47°47' W 122°26'111.5
2014-Nov-13 23:30N 47°46' W 122°26'1111.5
2014-Nov-13 22:33N 47°36' W 122°22'111.5
2014-Nov-13 22:30N 47°35' W 122°22'0 0.2
2014-Nov-13 21:33N 47°35' W 122°22'0 1.9
2014-Nov-13 21:29N 47°35' W 122°22'1 0.5
2014-Nov-13 20:33N 47°35' W 122°21'0 5.5
2014-Nov-13 20:29N 47°35' W 122°21'1 0.9
2014-Nov-13 19:33N 47°36' W 122°21'0 0.2
2014-Nov-13 19:24N 47°36' W 122°21'0 0.6
2014-Nov-13 18:33N 47°35' W 122°21'0 1.2
2014-Nov-13 18:28N 47°35' W 122°21'0 0.0
2014-Nov-13 17:31N 47°35' W 122°21'0 0.0
2014-Nov-13 17:28N 47°35' W 122°21'4 4.5
2014-Nov-13 16:33N 47°32' W 122°25'0 5.1
2014-Nov-13 16:33N 47°32' W 122°25'7 7.6
2014-Nov-13 15:33N 47°25' W 122°22'6 6.3
2014-Nov-13 14:33N 47°19' W 122°26'3 3.2
2014-Nov-13 13:33N 47°16' W 122°24'1 1.5
2014-Nov-13 12:33N 47°18' W 122°26'1 0.7
2014-Nov-13 11:33N 47°17' W 122°25'2 1.9
2014-Nov-13 10:33N 47°16' W 122°23'4 5.6
2014-Nov-13 09:52N 47°19' W 122°27'3 8.9
2014-Nov-13 09:33N 47°21' W 122°25'  

Dump ship's entire track history